sensor_id;sensor_type;location;lat;lon;timestamp;pressure;altitude;pressure_sealevel;temperature;humidity
69622;BME280;56841;55.964;37.674;2023-02-12T00:00:38;98097.50;;;-0.46;97.15
69622;BME280;56841;55.964;37.674;2023-02-12T00:03:05;98108.84;;;-0.57;96.00
69622;BME280;56841;55.964;37.674;2023-02-12T00:05:31;98116.59;;;-0.67;95.08
69622;BME280;56841;55.964;37.674;2023-02-12T00:07:57;98131.63;;;-0.61;94.57
69622;BME280;56841;55.964;37.674;2023-02-12T00:10:23;98118.09;;;-0.64;94.01
69622;BME280;56841;55.964;37.674;2023-02-12T00:12:49;98130.09;;;-0.63;93.25
69622;BME280;56841;55.964;37.674;2023-02-12T00:15:18;98135.81;;;-0.69;91.90
69622;BME280;56841;55.964;37.674;2023-02-12T00:17:43;98142.75;;;-0.80;91.26
69622;BME280;56841;55.964;37.674;2023-02-12T00:20:09;98141.63;;;-0.87;93.13
69622;BME280;56841;55.964;37.674;2023-02-12T00:22:35;98146.13;;;-0.89;92.18
69622;BME280;56841;55.964;37.674;2023-02-12T00:25:01;98151.28;;;-0.99;92.17
69622;BME280;56841;55.964;37.674;2023-02-12T00:27:33;98160.53;;;-1.06;92.93
69622;BME280;56841;55.964;37.674;2023-02-12T00:29:59;98174.03;;;-1.02;92.75
69622;BME280;56841;55.964;37.674;2023-02-12T00:32:25;98183.00;;;-1.06;92.80
69622;BME280;56841;55.964;37.674;2023-02-12T00:34:51;98182.41;;;-1.20;92.58
69622;BME280;56841;55.964;37.674;2023-02-12T00:37:16;98187.53;;;-1.29;92.79
69622;BME280;56841;55.964;37.674;2023-02-12T00:39:42;98209.88;;;-1.28;93.26
69622;BME280;56841;55.964;37.674;2023-02-12T00:42:10;98211.66;;;-1.29;92.03
69622;BME280;56841;55.964;37.674;2023-02-12T00:44:36;98215.19;;;-1.30;92.08
69622;BME280;56841;55.964;37.674;2023-02-12T00:47:03;98226.97;;;-1.37;92.89
69622;BME280;56841;55.964;37.674;2023-02-12T00:49:30;98229.97;;;-1.41;93.61
69622;BME280;56841;55.964;37.674;2023-02-12T00:52:00;98247.13;;;-1.40;92.78
69622;BME280;56841;55.964;37.674;2023-02-12T00:54:27;98244.34;;;-1.49;92.34
69622;BME280;56841;55.964;37.674;2023-02-12T00:56:54;98255.59;;;-1.59;92.70
69622;BME280;56841;55.964;37.674;2023-02-12T00:59:23;98259.00;;;-1.59;94.06
69622;BME280;56841;55.964;37.674;2023-02-12T01:01:51;98258.22;;;-1.71;92.85
69622;BME280;56841;55.964;37.674;2023-02-12T01:04:18;98268.69;;;-1.72;93.06
69622;BME280;56841;55.964;37.674;2023-02-12T01:06:43;98296.44;;;-1.63;92.71
69622;BME280;56841;55.964;37.674;2023-02-12T01:09:09;98289.28;;;-1.71;91.89
69622;BME280;56841;55.964;37.674;2023-02-12T01:11:35;98298.47;;;-1.78;91.81
69622;BME280;56841;55.964;37.674;2023-02-12T01:14:02;98305.28;;;-1.77;91.67
69622;BME280;56841;55.964;37.674;2023-02-12T01:16:28;98308.22;;;-1.81;91.37
69622;BME280;56841;55.964;37.674;2023-02-12T01:18:56;98321.66;;;-1.87;91.62
69622;BME280;56841;55.964;37.674;2023-02-12T01:21:23;98332.69;;;-1.85;92.20
69622;BME280;56841;55.964;37.674;2023-02-12T01:23:49;98328.72;;;-1.89;91.87
69622;BME280;56841;55.964;37.674;2023-02-12T01:26:16;98335.75;;;-1.92;92.21
69622;BME280;56841;55.964;37.674;2023-02-12T01:28:44;98357.53;;;-1.94;91.54
69622;BME280;56841;55.964;37.674;2023-02-12T01:31:19;98366.94;;;-1.93;91.92
69622;BME280;56841;55.964;37.674;2023-02-12T01:33:53;98375.06;;;-1.98;91.83
69622;BME280;56841;55.964;37.674;2023-02-12T01:36:19;98374.13;;;-2.08;92.35
69622;BME280;56841;55.964;37.674;2023-02-12T01:38:47;98370.72;;;-2.08;91.35
69622;BME280;56841;55.964;37.674;2023-02-12T01:41:17;98392.84;;;-2.04;92.36
69622;BME280;56841;55.964;37.674;2023-02-12T01:43:45;98397.66;;;-2.11;91.83
69622;BME280;56841;55.964;37.674;2023-02-12T01:46:13;98417.38;;;-2.21;92.67
69622;BME280;56841;55.964;37.674;2023-02-12T01:48:44;98402.19;;;-2.26;92.25
69622;BME280;56841;55.964;37.674;2023-02-12T01:51:14;98401.97;;;-2.23;92.41
69622;BME280;56841;55.964;37.674;2023-02-12T01:53:46;98400.09;;;-2.21;91.33
69622;BME280;56841;55.964;37.674;2023-02-12T01:56:14;98421.75;;;-2.22;90.84
69622;BME280;56841;55.964;37.674;2023-02-12T01:58:42;98433.00;;;-2.23;91.58
69622;BME280;56841;55.964;37.674;2023-02-12T02:01:14;98435.13;;;-2.28;91.11
69622;BME280;56841;55.964;37.674;2023-02-12T02:03:44;98436.19;;;-2.30;90.77
69622;BME280;56841;55.964;37.674;2023-02-12T02:06:26;98458.28;;;-2.26;91.00
69622;BME280;56841;55.964;37.674;2023-02-12T02:08:54;98458.97;;;-2.35;91.25
69622;BME280;56841;55.964;37.674;2023-02-12T02:11:21;98455.31;;;-2.33;91.62
69622;BME280;56841;55.964;37.674;2023-02-12T02:14:05;98461.66;;;-2.37;91.20
69622;BME280;56841;55.964;37.674;2023-02-12T02:20:00;98475.88;;;-2.43;91.17
69622;BME280;56841;55.964;37.674;2023-02-12T02:35:54;98522.28;;;-2.41;92.11
69622;BME280;56841;55.964;37.674;2023-02-12T02:38:44;98537.66;;;-2.51;91.70
69622;BME280;56841;55.964;37.674;2023-02-12T02:41:21;98549.53;;;-2.48;91.26
69622;BME280;56841;55.964;37.674;2023-02-12T02:43:52;98562.81;;;-2.53;91.15
69622;BME280;56841;55.964;37.674;2023-02-12T02:46:30;98556.03;;;-2.43;91.31
69622;BME280;56841;55.964;37.674;2023-02-12T02:48:59;98564.09;;;-2.47;90.72
69622;BME280;56841;55.964;37.674;2023-02-12T02:51:30;98576.94;;;-2.46;90.71
69622;BME280;56841;55.964;37.674;2023-02-12T02:54:20;98572.66;;;-2.47;90.31
69622;BME280;56841;55.964;37.674;2023-02-12T02:56:50;98585.34;;;-2.55;90.33
69622;BME280;56841;55.964;37.674;2023-02-12T02:59:26;98590.50;;;-2.55;90.59
69622;BME280;56841;55.964;37.674;2023-02-12T03:01:58;98591.53;;;-2.57;91.49
69622;BME280;56841;55.964;37.674;2023-02-12T03:04:35;98600.13;;;-2.57;91.61
69622;BME280;56841;55.964;37.674;2023-02-12T03:11:58;98618.59;;;-2.50;90.59
69622;BME280;56841;55.964;37.674;2023-02-12T03:14:29;98622.94;;;-2.51;90.95
69622;BME280;56841;55.964;37.674;2023-02-12T03:17:04;98638.19;;;-2.59;90.49
69622;BME280;56841;55.964;37.674;2023-02-12T03:19:36;98644.25;;;-2.60;90.87
69622;BME280;56841;55.964;37.674;2023-02-12T03:22:07;98647.47;;;-2.56;89.85
69622;BME280;56841;55.964;37.674;2023-02-12T03:24:38;98666.50;;;-2.57;89.46
69622;BME280;56841;55.964;37.674;2023-02-12T03:29:50;98668.81;;;-2.66;89.03
69622;BME280;56841;55.964;37.674;2023-02-12T03:32:37;98669.84;;;-2.68;88.37
69622;BME280;56841;55.964;37.674;2023-02-12T03:35:20;98675.22;;;-2.71;88.85
69622;BME280;56841;55.964;37.674;2023-02-12T03:41:11;98696.50;;;-2.80;86.69
69622;BME280;56841;55.964;37.674;2023-02-12T03:44:05;98705.94;;;-2.79;86.40
69622;BME280;56841;55.964;37.674;2023-02-12T03:52:29;98733.63;;;-2.81;85.93
69622;BME280;56841;55.964;37.674;2023-02-12T03:54:58;98739.81;;;-2.84;86.43
69622;BME280;56841;55.964;37.674;2023-02-12T03:57:28;98737.56;;;-2.89;85.88
69622;BME280;56841;55.964;37.674;2023-02-12T04:00:03;98741.09;;;-2.90;86.16
69622;BME280;56841;55.964;37.674;2023-02-12T04:02:40;98755.03;;;-2.92;85.14
69622;BME280;56841;55.964;37.674;2023-02-12T04:05:15;98754.09;;;-2.91;85.08
69622;BME280;56841;55.964;37.674;2023-02-12T04:07:41;98767.09;;;-3.05;84.77
69622;BME280;56841;55.964;37.674;2023-02-12T04:10:07;98772.81;;;-3.00;84.94
69622;BME280;56841;55.964;37.674;2023-02-12T04:12:39;98764.31;;;-3.02;83.95
69622;BME280;56841;55.964;37.674;2023-02-12T04:17:50;98770.94;;;-3.11;82.39
69622;BME280;56841;55.964;37.674;2023-02-12T04:29:21;98813.78;;;-3.21;83.66
69622;BME280;56841;55.964;37.674;2023-02-12T04:31:56;98819.22;;;-3.26;83.48
69622;BME280;56841;55.964;37.674;2023-02-12T04:39:27;98845.28;;;-3.16;83.24
69622;BME280;56841;55.964;37.674;2023-02-12T04:41:57;98846.41;;;-3.20;82.58
69622;BME280;56841;55.964;37.674;2023-02-12T04:44:28;98842.59;;;-3.27;82.11
69622;BME280;56841;55.964;37.674;2023-02-12T04:46:54;98851.59;;;-3.20;81.85
69622;BME280;56841;55.964;37.674;2023-02-12T04:49:20;98865.28;;;-3.33;81.65
69622;BME280;56841;55.964;37.674;2023-02-12T04:51:46;98881.50;;;-3.30;81.60
69622;BME280;56841;55.964;37.674;2023-02-12T04:54:14;98879.41;;;-3.38;81.54
69622;BME280;56841;55.964;37.674;2023-02-12T04:56:41;98880.25;;;-3.38;81.34
69622;BME280;56841;55.964;37.674;2023-02-12T04:59:07;98884.78;;;-3.28;80.88
69622;BME280;56841;55.964;37.674;2023-02-12T05:01:35;98897.06;;;-3.32;81.08
69622;BME280;56841;55.964;37.674;2023-02-12T05:04:02;98890.56;;;-3.38;79.92
69622;BME280;56841;55.964;37.674;2023-02-12T05:06:29;98899.03;;;-3.36;80.25
69622;BME280;56841;55.964;37.674;2023-02-12T05:08:55;98906.56;;;-3.33;79.95
69622;BME280;56841;55.964;37.674;2023-02-12T05:11:21;98919.16;;;-3.41;80.73
69622;BME280;56841;55.964;37.674;2023-02-12T05:13:47;98925.59;;;-3.34;80.58
69622;BME280;56841;55.964;37.674;2023-02-12T05:16:13;98926.41;;;-3.33;79.44
69622;BME280;56841;55.964;37.674;2023-02-12T05:18:39;98936.66;;;-3.31;79.57
69622;BME280;56841;55.964;37.674;2023-02-12T05:21:05;98934.59;;;-3.26;78.95
69622;BME280;56841;55.964;37.674;2023-02-12T05:23:31;98946.03;;;-3.30;78.52
69622;BME280;56841;55.964;37.674;2023-02-12T05:25:59;98952.66;;;-3.26;78.54
69622;BME280;56841;55.964;37.674;2023-02-12T05:28:26;98955.09;;;-3.38;78.17
69622;BME280;56841;55.964;37.674;2023-02-12T05:30:52;98958.69;;;-3.40;78.24
69622;BME280;56841;55.964;37.674;2023-02-12T05:33:18;98960.47;;;-3.41;78.17
69622;BME280;56841;55.964;37.674;2023-02-12T05:35:43;98984.03;;;-3.33;78.05
69622;BME280;56841;55.964;37.674;2023-02-12T05:38:09;98982.19;;;-3.30;78.22
69622;BME280;56841;55.964;37.674;2023-02-12T05:40:35;98981.81;;;-3.39;77.78
69622;BME280;56841;55.964;37.674;2023-02-12T05:43:00;98991.97;;;-3.36;77.78
69622;BME280;56841;55.964;37.674;2023-02-12T05:45:27;98996.84;;;-3.31;78.64
69622;BME280;56841;55.964;37.674;2023-02-12T05:47:56;98994.91;;;-3.27;79.09
69622;BME280;56841;55.964;37.674;2023-02-12T05:50:22;98998.63;;;-3.31;78.98
69622;BME280;56841;55.964;37.674;2023-02-12T05:53:01;99009.75;;;-3.31;79.24
69622;BME280;56841;55.964;37.674;2023-02-12T05:55:27;99020.47;;;-3.37;79.38
69622;BME280;56841;55.964;37.674;2023-02-12T05:57:53;99022.75;;;-3.33;79.51
69622;BME280;56841;55.964;37.674;2023-02-12T06:00:19;99020.53;;;-3.39;79.30
69622;BME280;56841;55.964;37.674;2023-02-12T06:02:45;99025.81;;;-3.40;79.05
69622;BME280;56841;55.964;37.674;2023-02-12T06:05:11;99027.94;;;-3.47;78.96
69622;BME280;56841;55.964;37.674;2023-02-12T06:07:37;99052.63;;;-3.43;78.32
69622;BME280;56841;55.964;37.674;2023-02-12T06:10:03;99045.63;;;-3.41;78.53
69622;BME280;56841;55.964;37.674;2023-02-12T06:12:28;99058.25;;;-3.50;78.27
69622;BME280;56841;55.964;37.674;2023-02-12T06:14:54;99051.63;;;-3.54;78.05
69622;BME280;56841;55.964;37.674;2023-02-12T06:17:20;99054.09;;;-3.53;78.03
69622;BME280;56841;55.964;37.674;2023-02-12T06:19:46;99074.56;;;-3.50;77.80
69622;BME280;56841;55.964;37.674;2023-02-12T06:22:11;99068.31;;;-3.60;77.66
69622;BME280;56841;55.964;37.674;2023-02-12T06:24:37;99083.25;;;-3.51;77.74
69622;BME280;56841;55.964;37.674;2023-02-12T06:27:03;99086.56;;;-3.49;77.21
69622;BME280;56841;55.964;37.674;2023-02-12T06:29:28;99092.47;;;-3.61;77.52
69622;BME280;56841;55.964;37.674;2023-02-12T06:31:54;99105.53;;;-3.64;77.09
69622;BME280;56841;55.964;37.674;2023-02-12T06:34:20;99107.84;;;-3.60;77.00
69622;BME280;56841;55.964;37.674;2023-02-12T06:36:46;99119.56;;;-3.54;76.78
69622;BME280;56841;55.964;37.674;2023-02-12T06:39:13;99130.41;;;-3.63;77.80
69622;BME280;56841;55.964;37.674;2023-02-12T06:41:40;99152.44;;;-3.72;76.24
69622;BME280;56841;55.964;37.674;2023-02-12T06:44:06;99157.78;;;-3.75;76.49
69622;BME280;56841;55.964;37.674;2023-02-12T06:46:32;99147.19;;;-3.70;76.75
69622;BME280;56841;55.964;37.674;2023-02-12T06:48:59;99155.84;;;-3.71;76.86
69622;BME280;56841;55.964;37.674;2023-02-12T06:51:26;99169.56;;;-3.71;76.80
69622;BME280;56841;55.964;37.674;2023-02-12T06:53:53;99177.97;;;-3.67;75.99
69622;BME280;56841;55.964;37.674;2023-02-12T06:56:21;99167.78;;;-3.85;76.19
69622;BME280;56841;55.964;37.674;2023-02-12T06:58:55;99181.53;;;-3.70;76.04
69622;BME280;56841;55.964;37.674;2023-02-12T07:01:24;99172.59;;;-3.78;75.76
69622;BME280;56841;55.964;37.674;2023-02-12T07:04:01;99182.75;;;-3.75;75.36
69622;BME280;56841;55.964;37.674;2023-02-12T07:06:28;99189.56;;;-3.74;75.26
69622;BME280;56841;55.964;37.674;2023-02-12T07:08:55;99192.53;;;-3.66;74.94
69622;BME280;56841;55.964;37.674;2023-02-12T07:11:29;99194.59;;;-3.57;75.18
69622;BME280;56841;55.964;37.674;2023-02-12T07:13:56;99196.31;;;-3.72;75.14
69622;BME280;56841;55.964;37.674;2023-02-12T07:16:21;99199.25;;;-3.64;74.62
69622;BME280;56841;55.964;37.674;2023-02-12T07:18:47;99217.06;;;-3.59;74.48
69622;BME280;56841;55.964;37.674;2023-02-12T07:21:13;99212.81;;;-3.60;73.53
69622;BME280;56841;55.964;37.674;2023-02-12T07:23:40;99216.50;;;-3.64;73.40
69622;BME280;56841;55.964;37.674;2023-02-12T07:26:10;99215.19;;;-3.41;73.46
69622;BME280;56841;55.964;37.674;2023-02-12T07:28:36;99221.00;;;-3.38;72.70
69622;BME280;56841;55.964;37.674;2023-02-12T07:31:06;99225.69;;;-3.44;72.18
69622;BME280;56841;55.964;37.674;2023-02-12T07:33:33;99234.72;;;-3.37;72.40
69622;BME280;56841;55.964;37.674;2023-02-12T07:36:02;99235.72;;;-3.40;72.04
69622;BME280;56841;55.964;37.674;2023-02-12T07:38:28;99228.16;;;-3.43;72.15
69622;BME280;56841;55.964;37.674;2023-02-12T07:40:54;99237.22;;;-3.36;72.34
69622;BME280;56841;55.964;37.674;2023-02-12T07:43:23;99245.72;;;-3.34;72.53
69622;BME280;56841;55.964;37.674;2023-02-12T07:45:49;99250.78;;;-3.32;72.46
69622;BME280;56841;55.964;37.674;2023-02-12T07:48:15;99261.72;;;-3.43;72.27
69622;BME280;56841;55.964;37.674;2023-02-12T07:50:41;99247.00;;;-3.41;72.04
69622;BME280;56841;55.964;37.674;2023-02-12T07:53:07;99267.94;;;-3.31;72.44
69622;BME280;56841;55.964;37.674;2023-02-12T07:55:32;99276.22;;;-3.40;71.89
69622;BME280;56841;55.964;37.674;2023-02-12T07:57:59;99280.06;;;-3.47;71.99
69622;BME280;56841;55.964;37.674;2023-02-12T08:00:24;99288.34;;;-3.42;72.55
69622;BME280;56841;55.964;37.674;2023-02-12T08:02:51;99293.19;;;-3.36;72.64
69622;BME280;56841;55.964;37.674;2023-02-12T08:05:17;99289.25;;;-3.27;72.05
69622;BME280;56841;55.964;37.674;2023-02-12T08:07:43;99290.91;;;-3.26;71.50
69622;BME280;56841;55.964;37.674;2023-02-12T08:10:09;99303.38;;;-3.19;71.66
69622;BME280;56841;55.964;37.674;2023-02-12T08:12:35;99302.09;;;-3.12;71.23
69622;BME280;56841;55.964;37.674;2023-02-12T08:15:01;99314.97;;;-3.26;71.13
69622;BME280;56841;55.964;37.674;2023-02-12T08:17:29;99313.34;;;-3.13;70.45
69622;BME280;56841;55.964;37.674;2023-02-12T08:19:55;99316.59;;;-3.09;70.58
69622;BME280;56841;55.964;37.674;2023-02-12T08:22:21;99296.75;;;-3.08;70.53
69622;BME280;56841;55.964;37.674;2023-02-12T08:24:47;99312.81;;;-3.18;70.76
69622;BME280;56841;55.964;37.674;2023-02-12T08:27:12;99332.97;;;-3.24;70.75
69622;BME280;56841;55.964;37.674;2023-02-12T08:29:38;99323.19;;;-3.19;71.01
69622;BME280;56841;55.964;37.674;2023-02-12T08:32:04;99344.03;;;-3.22;70.90
69622;BME280;56841;55.964;37.674;2023-02-12T08:34:33;99353.22;;;-3.02;70.64
69622;BME280;56841;55.964;37.674;2023-02-12T08:37:00;99341.25;;;-3.03;70.59
69622;BME280;56841;55.964;37.674;2023-02-12T08:39:28;99355.50;;;-2.82;70.20
69622;BME280;56841;55.964;37.674;2023-02-12T08:41:55;99353.25;;;-2.88;69.36
69622;BME280;56841;55.964;37.674;2023-02-12T08:44:22;99352.72;;;-2.93;69.78
69622;BME280;56841;55.964;37.674;2023-02-12T08:46:50;99370.88;;;-2.95;69.75
69622;BME280;56841;55.964;37.674;2023-02-12T08:49:22;99367.41;;;-2.79;69.42
69622;BME280;56841;55.964;37.674;2023-02-12T08:51:50;99367.66;;;-2.84;69.00
69622;BME280;56841;55.964;37.674;2023-02-12T08:54:19;99369.44;;;-2.70;68.81
69622;BME280;56841;55.964;37.674;2023-02-12T08:56:45;99368.44;;;-2.68;67.86
69622;BME280;56841;55.964;37.674;2023-02-12T08:59:11;99371.94;;;-2.69;68.08
69622;BME280;56841;55.964;37.674;2023-02-12T09:01:38;99377.56;;;-2.76;67.67
69622;BME280;56841;55.964;37.674;2023-02-12T09:04:07;99391.16;;;-2.73;67.88
69622;BME280;56841;55.964;37.674;2023-02-12T09:06:34;99385.72;;;-2.54;67.33
69622;BME280;56841;55.964;37.674;2023-02-12T09:09:01;99381.78;;;-2.45;67.69
69622;BME280;56841;55.964;37.674;2023-02-12T09:11:28;99392.44;;;-2.66;67.44
69622;BME280;56841;55.964;37.674;2023-02-12T09:14:03;99396.28;;;-2.87;66.42
69622;BME280;56841;55.964;37.674;2023-02-12T09:16:30;99404.31;;;-2.77;66.33
69622;BME280;56841;55.964;37.674;2023-02-12T09:18:57;99396.50;;;-2.76;66.33
69622;BME280;56841;55.964;37.674;2023-02-12T09:21:23;99404.44;;;-2.95;65.50
69622;BME280;56841;55.964;37.674;2023-02-12T09:23:48;99407.69;;;-3.21;65.81
69622;BME280;56841;55.964;37.674;2023-02-12T09:26:16;99406.00;;;-3.22;65.74
69622;BME280;56841;55.964;37.674;2023-02-12T09:28:46;99421.44;;;-3.21;66.19
69622;BME280;56841;55.964;37.674;2023-02-12T09:31:15;99433.69;;;-3.24;65.53
69622;BME280;56841;55.964;37.674;2023-02-12T09:33:42;99412.69;;;-3.34;65.37
69622;BME280;56841;55.964;37.674;2023-02-12T09:36:11;99425.44;;;-3.47;65.96
69622;BME280;56841;55.964;37.674;2023-02-12T09:38:38;99435.00;;;-3.49;66.20
69622;BME280;56841;55.964;37.674;2023-02-12T09:44:21;99432.75;;;-3.23;66.64
69622;BME280;56841;55.964;37.674;2023-02-12T09:47:00;99424.13;;;-2.92;65.75
69622;BME280;56841;55.964;37.674;2023-02-12T09:52:12;99432.19;;;-2.82;65.65
69622;BME280;56841;55.964;37.674;2023-02-12T09:54:40;99432.00;;;-2.79;65.09
69622;BME280;56841;55.964;37.674;2023-02-12T09:57:16;99446.06;;;-2.99;64.70
69622;BME280;56841;55.964;37.674;2023-02-12T09:59:48;99452.38;;;-3.05;64.84
69622;BME280;56841;55.964;37.674;2023-02-12T10:02:17;99435.06;;;-3.03;65.24
69622;BME280;56841;55.964;37.674;2023-02-12T10:04:45;99453.31;;;-3.06;65.38
69622;BME280;56841;55.964;37.674;2023-02-12T10:07:21;99443.06;;;-3.07;65.17
69622;BME280;56841;55.964;37.674;2023-02-12T10:12:28;99451.59;;;-3.21;65.46
69622;BME280;56841;55.964;37.674;2023-02-12T10:17:39;99467.81;;;-3.03;65.79
69622;BME280;56841;55.964;37.674;2023-02-12T10:20:32;99477.88;;;-2.99;65.85
69622;BME280;56841;55.964;37.674;2023-02-12T10:25:54;99475.84;;;-2.48;65.46
69622;BME280;56841;55.964;37.674;2023-02-12T10:28:32;99484.59;;;-2.50;65.93
69622;BME280;56841;55.964;37.674;2023-02-12T10:31:06;99480.34;;;-2.66;66.17
69622;BME280;56841;55.964;37.674;2023-02-12T10:33:47;99485.19;;;-2.75;66.06
69622;BME280;56841;55.964;37.674;2023-02-12T10:36:28;99485.00;;;-2.72;66.57
69622;BME280;56841;55.964;37.674;2023-02-12T10:44:27;99510.97;;;-2.90;66.45
69622;BME280;56841;55.964;37.674;2023-02-12T10:46:53;99503.47;;;-3.10;66.38
69622;BME280;56841;55.964;37.674;2023-02-12T10:49:20;99504.09;;;-2.75;65.71
69622;BME280;56841;55.964;37.674;2023-02-12T10:54:36;99502.94;;;-2.69;64.87
69622;BME280;56841;55.964;37.674;2023-02-12T10:57:21;99503.38;;;-2.93;65.65
69622;BME280;56841;55.964;37.674;2023-02-12T10:59:50;99510.94;;;-2.74;65.76
69622;BME280;56841;55.964;37.674;2023-02-12T11:04:47;99526.75;;;-2.64;65.10
69622;BME280;56841;55.964;37.674;2023-02-12T11:07:13;99513.81;;;-2.64;65.11
69622;BME280;56841;55.964;37.674;2023-02-12T11:09:40;99520.59;;;-2.62;65.04
69622;BME280;56841;55.964;37.674;2023-02-12T11:15:11;99530.88;;;-2.16;64.66
69622;BME280;56841;55.964;37.674;2023-02-12T11:17:40;99536.59;;;-1.80;63.66
69622;BME280;56841;55.964;37.674;2023-02-12T11:22:57;99545.66;;;-2.18;63.81
69622;BME280;56841;55.964;37.674;2023-02-12T11:25:28;99571.06;;;-2.24;64.03
69622;BME280;56841;55.964;37.674;2023-02-12T11:28:17;99568.28;;;-2.21;64.30
69622;BME280;56841;55.964;37.674;2023-02-12T11:30:54;99580.63;;;-2.26;64.08
69622;BME280;56841;55.964;37.674;2023-02-12T11:35:53;99581.38;;;-2.70;64.94
69622;BME280;56841;55.964;37.674;2023-02-12T11:38:30;99579.38;;;-2.65;65.10
69622;BME280;56841;55.964;37.674;2023-02-12T11:40:59;99578.44;;;-2.64;65.17
69622;BME280;56841;55.964;37.674;2023-02-12T11:43:28;99580.13;;;-2.63;65.26
69622;BME280;56841;55.964;37.674;2023-02-12T11:45:56;99590.53;;;-2.65;64.78
69622;BME280;56841;55.964;37.674;2023-02-12T11:48:26;99599.56;;;-3.03;65.20
69622;BME280;56841;55.964;37.674;2023-02-12T11:50:55;99600.97;;;-2.98;65.23
69622;BME280;56841;55.964;37.674;2023-02-12T11:53:26;99606.38;;;-3.02;64.58
69622;BME280;56841;55.964;37.674;2023-02-12T11:56:08;99597.19;;;-3.08;65.15
69622;BME280;56841;55.964;37.674;2023-02-12T11:58:35;99602.63;;;-3.13;64.78
69622;BME280;56841;55.964;37.674;2023-02-12T12:04:07;99613.56;;;-2.92;65.16
69622;BME280;56841;55.964;37.674;2023-02-12T12:06:46;99619.84;;;-2.80;64.45
69622;BME280;56841;55.964;37.674;2023-02-12T12:09:19;99624.56;;;-2.72;64.59
69622;BME280;56841;55.964;37.674;2023-02-12T12:14:58;99643.06;;;-2.64;64.92
69622;BME280;56841;55.964;37.674;2023-02-12T12:17:50;99644.59;;;-2.76;64.22
69622;BME280;56841;55.964;37.674;2023-02-12T12:21:07;99659.09;;;-2.57;65.12
69622;BME280;56841;55.964;37.674;2023-02-12T12:26:25;99660.03;;;-2.43;64.65
69622;BME280;56841;55.964;37.674;2023-02-12T12:29:24;99666.25;;;-2.47;65.58
69622;BME280;56841;55.964;37.674;2023-02-12T12:31:58;99666.84;;;-2.57;65.38
69622;BME280;56841;55.964;37.674;2023-02-12T12:34:26;99672.19;;;-2.60;65.90
69622;BME280;56841;55.964;37.674;2023-02-12T12:59:53;99700.09;;;-2.67;65.66
69622;BME280;56841;55.964;37.674;2023-02-12T13:02:48;99714.13;;;-2.71;66.13
69622;BME280;56841;55.964;37.674;2023-02-12T13:08:27;99702.44;;;-2.47;65.81
69622;BME280;56841;55.964;37.674;2023-02-12T13:10:56;99718.13;;;-2.50;65.28
69622;BME280;56841;55.964;37.674;2023-02-12T13:13:37;99726.31;;;-2.42;65.60
69622;BME280;56841;55.964;37.674;2023-02-12T13:16:12;99731.53;;;-2.75;65.14
69622;BME280;56841;55.964;37.674;2023-02-12T13:18:58;99739.59;;;-2.81;65.74
69622;BME280;56841;55.964;37.674;2023-02-12T13:21:59;99743.81;;;-2.96;66.14
69622;BME280;56841;55.964;37.674;2023-02-12T13:24:44;99747.31;;;-2.97;66.38
69622;BME280;56841;55.964;37.674;2023-02-12T13:27:25;99743.31;;;-3.02;66.45
69622;BME280;56841;55.964;37.674;2023-02-12T13:32:36;99749.38;;;-3.03;66.24
69622;BME280;56841;55.964;37.674;2023-02-12T13:35:14;99758.19;;;-3.25;66.27
69622;BME280;56841;55.964;37.674;2023-02-12T13:37:43;99753.72;;;-3.39;66.19
69622;BME280;56841;55.964;37.674;2023-02-12T13:40:17;99760.81;;;-3.07;65.61
69622;BME280;56841;55.964;37.674;2023-02-12T13:45:29;99764.81;;;-3.37;66.05
69622;BME280;56841;55.964;37.674;2023-02-12T13:48:05;99771.78;;;-3.39;66.38
69622;BME280;56841;55.964;37.674;2023-02-12T13:53:22;99758.84;;;-2.38;63.61
69622;BME280;56841;55.964;37.674;2023-02-12T13:56:28;99783.84;;;-2.05;62.96
69622;BME280;56841;55.964;37.674;2023-02-12T13:59:00;99788.38;;;-1.78;61.83
69622;BME280;56841;55.964;37.674;2023-02-12T14:04:24;99776.22;;;-3.06;64.55
69622;BME280;56841;55.964;37.674;2023-02-12T14:12:29;99797.16;;;-3.64;66.95
69622;BME280;56841;55.964;37.674;2023-02-12T14:15:09;99791.81;;;-3.78;67.47
69622;BME280;56841;55.964;37.674;2023-02-12T14:20:25;99791.69;;;-3.94;68.01
69622;BME280;56841;55.964;37.674;2023-02-12T14:25:40;99798.44;;;-4.11;68.78
69622;BME280;56841;55.964;37.674;2023-02-12T14:28:19;99823.78;;;-4.19;69.30
69622;BME280;56841;55.964;37.674;2023-02-12T14:31:20;99819.72;;;-4.24;69.42
69622;BME280;56841;55.964;37.674;2023-02-12T14:33:49;99821.72;;;-4.31;69.51
69622;BME280;56841;55.964;37.674;2023-02-12T14:36:36;99830.06;;;-4.45;70.28
69622;BME280;56841;55.964;37.674;2023-02-12T14:41:45;99832.09;;;-4.52;70.98
69622;BME280;56841;55.964;37.674;2023-02-12T14:46:57;99857.09;;;-4.54;70.96
69622;BME280;56841;55.964;37.674;2023-02-12T14:49:24;99855.56;;;-4.58;71.61
69622;BME280;56841;55.964;37.674;2023-02-12T14:55:02;99870.31;;;-4.61;71.35
69622;BME280;56841;55.964;37.674;2023-02-12T14:57:31;99881.13;;;-4.73;71.72
69622;BME280;56841;55.964;37.674;2023-02-12T15:02:42;99885.38;;;-4.72;71.83
69622;BME280;56841;55.964;37.674;2023-02-12T15:05:15;99893.31;;;-4.77;72.12
69622;BME280;56841;55.964;37.674;2023-02-12T15:07:55;99889.19;;;-4.81;71.95
69622;BME280;56841;55.964;37.674;2023-02-12T15:10:36;99904.69;;;-4.83;72.70
69622;BME280;56841;55.964;37.674;2023-02-12T15:13:14;99904.69;;;-4.83;72.47
69622;BME280;56841;55.964;37.674;2023-02-12T15:15:51;99911.28;;;-4.76;72.38
69622;BME280;56841;55.964;37.674;2023-02-12T15:18:23;99907.97;;;-4.79;72.55
69622;BME280;56841;55.964;37.674;2023-02-12T15:23:38;99918.56;;;-4.85;72.46
69622;BME280;56841;55.964;37.674;2023-02-12T15:26:11;99913.41;;;-4.85;72.58
69622;BME280;56841;55.964;37.674;2023-02-12T15:28:38;99915.84;;;-4.82;73.07
69622;BME280;56841;55.964;37.674;2023-02-12T15:31:05;99919.28;;;-4.82;72.63
69622;BME280;56841;55.964;37.674;2023-02-12T15:33:43;99919.56;;;-4.89;73.07
69622;BME280;56841;55.964;37.674;2023-02-12T15:36:16;99914.63;;;-4.94;73.34
69622;BME280;56841;55.964;37.674;2023-02-12T15:38:43;99910.38;;;-4.95;73.27
69622;BME280;56841;55.964;37.674;2023-02-12T15:43:57;99911.25;;;-4.96;73.76